createdAt,value
2023-07-24T00:01:10.605Z,21.10
2023-07-24T00:03:37.166Z,21.11
2023-07-24T00:06:03.883Z,21.09
2023-07-24T00:08:32.082Z,21.11
2023-07-24T00:10:58.903Z,21.07
2023-07-24T00:13:25.508Z,21.08
2023-07-24T00:15:52.644Z,21.06
2023-07-24T00:18:19.307Z,21.06
2023-07-24T00:20:45.904Z,21.04
2023-07-24T00:23:12.777Z,21.01
2023-07-24T00:25:39.416Z,20.98
2023-07-24T00:28:06.230Z,21.01
2023-07-24T00:30:32.779Z,20.98
2023-07-24T00:32:59.660Z,20.96
2023-07-24T00:35:27.608Z,20.90
2023-07-24T00:37:54.166Z,20.85
2023-07-24T00:40:20.813Z,20.84
2023-07-24T00:42:50.790Z,20.84
2023-07-24T00:45:17.536Z,20.75
2023-07-24T00:47:44.632Z,20.82
2023-07-24T00:50:13.003Z,20.76
2023-07-24T00:52:39.963Z,20.74
2023-07-24T00:55:07.365Z,20.72
2023-07-24T00:57:34.684Z,20.65
2023-07-24T01:00:01.556Z,20.65
2023-07-24T01:02:28.619Z,20.67
2023-07-24T01:04:55.270Z,20.63
2023-07-24T01:07:21.985Z,20.69
2023-07-24T01:09:49.002Z,20.65
2023-07-24T01:12:23.850Z,20.69
2023-07-24T01:14:55.878Z,20.75
2023-07-24T01:17:26.065Z,20.76
2023-07-24T01:20:05.456Z,20.83
2023-07-24T01:26:20.573Z,20.87
2023-07-24T01:28:48.361Z,20.92
2023-07-24T01:31:15.229Z,20.86
2023-07-24T01:33:42.738Z,20.77
2023-07-24T01:36:10.675Z,20.85
2023-07-24T01:38:38.123Z,20.82
2023-07-24T01:41:05.114Z,20.78
2023-07-24T01:43:33.293Z,20.69
2023-07-24T01:45:59.986Z,20.68
2023-07-24T01:48:26.614Z,20.70
2023-07-24T01:50:53.458Z,20.73
2023-07-24T01:53:20.034Z,20.73
2023-07-24T01:55:46.746Z,20.68
2023-07-24T01:58:13.581Z,20.63
2023-07-24T02:00:40.131Z,20.59
2023-07-24T02:03:06.894Z,20.56
2023-07-24T02:05:33.632Z,20.57
2023-07-24T02:08:00.283Z,20.55
2023-07-24T02:10:26.892Z,20.57
2023-07-24T02:12:53.737Z,20.52
2023-07-24T02:15:20.377Z,20.53
2023-07-24T02:17:47.273Z,20.53
2023-07-24T02:20:13.864Z,20.48
2023-07-24T02:22:40.688Z,20.48
2023-07-24T02:25:07.534Z,20.50
2023-07-24T02:27:35.841Z,20.51
2023-07-24T02:30:03.593Z,20.49
2023-07-24T02:32:30.284Z,20.50
2023-07-24T02:34:57.046Z,20.48
2023-07-24T02:37:23.798Z,20.46
2023-07-24T02:39:50.472Z,20.41
2023-07-24T02:42:16.956Z,20.40
2023-07-24T02:44:43.700Z,20.36
2023-07-24T02:47:10.539Z,20.35
2023-07-24T02:49:37.315Z,20.32
2023-07-24T02:52:04.181Z,20.36
2023-07-24T02:54:31.129Z,20.35
2023-07-24T02:56:59.245Z,20.36
2023-07-24T02:59:26.202Z,20.30
2023-07-24T03:01:53.126Z,20.27
2023-07-24T03:04:20.012Z,20.23
2023-07-24T03:06:46.630Z,20.19
2023-07-24T03:09:13.464Z,20.16
2023-07-24T03:11:40.088Z,20.19
2023-07-24T03:14:06.905Z,20.19
2023-07-24T03:16:34.926Z,20.17
2023-07-24T03:19:01.588Z,20.20
2023-07-24T03:21:28.195Z,20.15
2023-07-24T03:23:54.815Z,20.13
2023-07-24T03:26:21.345Z,20.12
2023-07-24T03:28:47.938Z,20.11
2023-07-24T03:31:14.962Z,20.07
2023-07-24T03:33:41.808Z,20.08
2023-07-24T03:36:08.457Z,20.13
2023-07-24T03:38:36.074Z,20.15
2023-07-24T03:41:02.631Z,20.14
2023-07-24T03:43:29.204Z,20.15
2023-07-24T03:45:56.046Z,20.15
2023-07-24T03:48:22.901Z,20.16
2023-07-24T03:50:51.658Z,20.18
2023-07-24T03:53:18.440Z,20.17
2023-07-24T03:55:45.591Z,20.16
2023-07-24T03:58:12.353Z,20.19
2023-07-24T04:00:39.042Z,20.18
2023-07-24T04:03:05.903Z,20.16
2023-07-24T04:05:32.601Z,20.19
2023-07-24T04:07:59.509Z,20.20
2023-07-24T04:10:26.065Z,20.21
2023-07-24T04:12:52.851Z,20.25
2023-07-24T04:15:19.782Z,20.23
2023-07-24T04:17:46.481Z,20.28
2023-07-24T04:20:13.146Z,20.29
2023-07-24T04:22:39.954Z,20.35
2023-07-24T04:25:07.218Z,20.39
2023-07-24T04:27:33.833Z,20.46
2023-07-24T04:30:00.678Z,20.39
2023-07-24T04:32:28.809Z,20.47
2023-07-24T04:34:55.530Z,20.52
2023-07-24T04:37:22.346Z,20.46
2023-07-24T04:39:48.898Z,20.44
2023-07-24T04:42:15.549Z,20.47
2023-07-24T04:44:42.224Z,20.48
2023-07-24T04:47:08.821Z,20.49
2023-07-24T04:49:35.953Z,20.50
2023-07-24T04:52:02.563Z,20.49
2023-07-24T04:54:29.839Z,20.52
2023-07-24T04:56:56.492Z,20.53
2023-07-24T04:59:23.108Z,20.52
2023-07-24T05:01:49.803Z,20.53
2023-07-24T05:04:16.537Z,20.55
2023-07-24T05:06:43.167Z,20.56
2023-07-24T05:09:10.030Z,20.61
2023-07-24T05:11:36.832Z,20.60
2023-07-24T05:14:03.750Z,20.64
2023-07-24T05:16:30.828Z,20.63
2023-07-24T05:18:57.890Z,20.69
2023-07-24T05:21:24.760Z,20.67
2023-07-24T05:23:51.601Z,20.69
2023-07-24T05:26:18.460Z,20.70
2023-07-24T05:28:45.813Z,20.74
2023-07-24T05:31:12.396Z,20.79
2023-07-24T05:33:39.256Z,20.86
2023-07-24T05:36:05.980Z,20.89
2023-07-24T05:38:33.176Z,20.94
2023-07-24T05:41:01.605Z,20.99
2023-07-24T05:43:28.642Z,21.03
2023-07-24T05:45:56.781Z,21.05
2023-07-24T05:48:24.788Z,21.09
2023-07-24T05:50:51.815Z,21.12
2023-07-24T05:53:18.833Z,21.15
2023-07-24T05:55:46.213Z,21.15
2023-07-24T05:58:13.269Z,21.16
2023-07-24T06:00:40.136Z,21.15
2023-07-24T06:03:08.686Z,21.13
2023-07-24T06:05:36.165Z,21.11
2023-07-24T06:08:02.860Z,21.14
2023-07-24T06:10:29.622Z,21.16
2023-07-24T06:12:56.999Z,21.22
2023-07-24T06:15:23.694Z,21.24
2023-07-24T06:17:52.532Z,21.31
2023-07-24T06:20:21.182Z,21.39
2023-07-24T06:22:47.857Z,21.45
2023-07-24T06:25:14.532Z,21.57
2023-07-24T06:27:41.149Z,21.63
2023-07-24T06:30:15.104Z,21.68
2023-07-24T06:32:42.984Z,21.73
2023-07-24T06:35:10.021Z,21.79
2023-07-24T06:37:36.839Z,21.85
2023-07-24T06:40:04.355Z,21.89
2023-07-24T06:42:31.176Z,21.95
2023-07-24T06:44:57.731Z,21.95
2023-07-24T06:47:24.427Z,22.01
2023-07-24T06:49:51.201Z,22.06
2023-07-24T06:52:17.719Z,22.16
2023-07-24T06:54:44.876Z,22.19
2023-07-24T06:57:11.410Z,22.19
2023-07-24T06:59:38.010Z,22.17
2023-07-24T07:02:04.938Z,22.14
2023-07-24T07:04:31.587Z,22.10
2023-07-24T07:06:58.227Z,22.07
2023-07-24T07:09:25.149Z,22.06
2023-07-24T07:11:51.628Z,22.07
2023-07-24T07:14:18.482Z,22.06
2023-07-24T07:16:45.649Z,22.07
2023-07-24T07:19:12.414Z,22.09
2023-07-24T07:21:39.285Z,22.13
2023-07-24T07:24:06.214Z,22.19
2023-07-24T07:26:33.340Z,22.24
2023-07-24T07:29:01.058Z,22.29
2023-07-24T07:31:28.045Z,22.31
2023-07-24T07:33:54.930Z,22.33
2023-07-24T07:36:24.130Z,22.33
2023-07-24T07:38:50.966Z,22.36
2023-07-24T07:41:17.824Z,22.35
2023-07-24T07:43:44.380Z,22.36
2023-07-24T07:46:12.282Z,22.33
2023-07-24T07:48:39.078Z,22.36
2023-07-24T07:51:05.820Z,22.38
2023-07-24T07:53:33.150Z,22.43
2023-07-24T07:56:03.402Z,22.46
2023-07-24T07:58:30.061Z,22.50
2023-07-24T08:00:56.985Z,22.54
2023-07-24T08:03:23.994Z,22.57
2023-07-24T08:05:50.961Z,22.64
2023-07-24T08:08:17.606Z,22.69
2023-07-24T08:10:44.277Z,22.72
2023-07-24T08:13:10.910Z,22.80
2023-07-24T08:15:38.853Z,22.88
2023-07-24T08:18:06.448Z,22.93
2023-07-24T08:20:38.141Z,22.99
2023-07-24T08:23:04.985Z,23.02
2023-07-24T08:25:31.797Z,23.08
2023-07-24T08:28:05.397Z,23.11
2023-07-24T08:30:33.269Z,23.16
2023-07-24T08:33:00.695Z,23.13
2023-07-24T08:35:27.949Z,23.12
2023-07-24T08:37:54.950Z,23.14
2023-07-24T08:40:21.784Z,23.16
2023-07-24T08:42:51.995Z,23.24
2023-07-24T08:45:19.422Z,23.33
2023-07-24T08:47:46.489Z,23.44
2023-07-24T08:50:16.459Z,23.54
2023-07-24T08:52:46.315Z,23.67
2023-07-24T08:55:14.639Z,23.79
2023-07-24T08:57:41.213Z,23.93
2023-07-24T09:00:08.503Z,24.09
2023-07-24T09:02:36.470Z,24.26
2023-07-24T09:05:04.633Z,24.33
2023-07-24T09:07:32.415Z,24.38
2023-07-24T09:09:59.289Z,24.36
2023-07-24T09:12:26.052Z,24.41
2023-07-24T09:15:07.228Z,24.59
2023-07-24T09:17:34.926Z,24.69
2023-07-24T09:20:03.156Z,24.83
2023-07-24T09:22:29.832Z,25.01
2023-07-24T09:24:58.357Z,25.06
2023-07-24T09:27:32.410Z,25.01
2023-07-24T09:29:59.723Z,24.95
2023-07-24T09:32:27.719Z,24.91
2023-07-24T09:34:56.272Z,24.94
2023-07-24T09:37:32.341Z,25.02
2023-07-24T09:40:00.989Z,25.03
2023-07-24T09:42:44.780Z,25.00
2023-07-24T09:45:23.336Z,25.03
2023-07-24T09:47:56.686Z,25.12
2023-07-24T09:50:25.836Z,25.23
2023-07-24T09:52:53.276Z,25.38
2023-07-24T09:55:31.066Z,25.48
2023-07-24T09:57:59.828Z,25.57
2023-07-24T10:00:26.943Z,25.57
2023-07-24T10:02:54.047Z,25.61
2023-07-24T10:05:21.461Z,25.68
2023-07-24T10:07:49.285Z,25.74
2023-07-24T10:10:16.976Z,25.75
2023-07-24T10:12:44.733Z,25.75
2023-07-24T10:15:12.919Z,25.80
2023-07-24T10:17:41.619Z,25.82
2023-07-24T10:20:13.137Z,25.90
2023-07-24T10:22:44.606Z,25.96
2023-07-24T10:25:12.984Z,26.06
2023-07-24T10:27:48.392Z,26.12
2023-07-24T10:30:33.735Z,26.17
2023-07-24T10:33:13.486Z,26.18
2023-07-24T10:35:47.117Z,26.11
2023-07-24T10:38:17.516Z,26.06
2023-07-24T10:40:46.464Z,26.01
2023-07-24T10:43:18.817Z,25.98
2023-07-24T10:45:53.650Z,26.02
2023-07-24T10:48:23.422Z,25.94
2023-07-24T10:50:54.285Z,25.92
2023-07-24T10:53:23.316Z,25.93
2023-07-24T10:55:51.998Z,25.94
2023-07-24T10:58:18.636Z,25.86
2023-07-24T11:00:47.276Z,25.83
2023-07-24T11:03:15.225Z,25.90
2023-07-24T11:05:43.031Z,25.90
2023-07-24T11:08:17.046Z,25.93
2023-07-24T11:10:52.531Z,25.94
2023-07-24T11:13:21.831Z,25.94
2023-07-24T11:15:50.663Z,25.89
2023-07-24T11:18:17.825Z,25.81
2023-07-24T11:20:47.489Z,25.85
2023-07-24T11:23:14.894Z,26.02
2023-07-24T11:25:42.082Z,26.26
2023-07-24T11:28:11.153Z,26.55
2023-07-24T11:30:38.028Z,26.87
2023-07-24T11:33:06.898Z,27.17
2023-07-24T11:35:34.446Z,27.49
2023-07-24T11:38:00.998Z,27.69
2023-07-24T11:40:40.215Z,27.88
2023-07-24T11:43:16.890Z,28.00
2023-07-24T11:45:44.607Z,28.10
2023-07-24T11:48:12.598Z,28.05
2023-07-24T11:50:50.214Z,27.89
2023-07-24T11:53:21.666Z,27.62
2023-07-24T11:55:49.038Z,27.34
2023-07-24T11:58:17.432Z,27.14
2023-07-24T12:00:44.236Z,26.93
2023-07-24T12:03:11.190Z,26.73
2023-07-24T12:05:46.691Z,26.62
2023-07-24T12:08:15.319Z,26.72
2023-07-24T12:10:42.237Z,26.80
2023-07-24T12:13:08.724Z,27.02
2023-07-24T12:15:36.459Z,27.14
2023-07-24T12:18:05.397Z,27.10
2023-07-24T12:20:32.483Z,26.97
2023-07-24T12:22:59.307Z,26.79
2023-07-24T12:25:26.001Z,26.74
2023-07-24T12:27:52.609Z,26.84
2023-07-24T12:30:19.798Z,26.79
2023-07-24T12:32:46.602Z,26.69
2023-07-24T12:35:16.117Z,26.51
2023-07-24T12:37:43.725Z,26.33
2023-07-24T12:40:10.537Z,26.18
2023-07-24T12:42:37.062Z,26.08
2023-07-24T12:45:04.791Z,26.00
2023-07-24T12:47:32.407Z,25.93
2023-07-24T12:50:00.256Z,25.79
2023-07-24T12:52:27.696Z,25.72
2023-07-24T12:55:01.789Z,25.66
2023-07-24T12:57:29.079Z,25.62
2023-07-24T12:59:55.637Z,25.55
2023-07-24T13:02:22.172Z,25.47
2023-07-24T13:04:48.712Z,25.42
2023-07-24T13:07:15.320Z,25.36
2023-07-24T13:09:41.805Z,25.35
2023-07-24T13:12:09.375Z,25.34
2023-07-24T13:14:35.858Z,25.31
2023-07-24T13:17:02.789Z,25.31
2023-07-24T13:19:29.377Z,25.32
2023-07-24T13:21:55.897Z,25.33
2023-07-24T13:24:22.447Z,25.37
2023-07-24T13:26:48.958Z,25.33
2023-07-24T13:29:16.179Z,25.33
2023-07-24T13:31:42.740Z,25.39
2023-07-24T13:34:12.159Z,25.53
2023-07-24T13:36:38.823Z,25.72
2023-07-24T13:39:05.464Z,25.84
2023-07-24T13:41:32.338Z,25.90
2023-07-24T13:43:59.112Z,25.88
2023-07-24T13:46:25.589Z,25.85
2023-07-24T13:48:52.221Z,25.88
2023-07-24T13:51:18.711Z,25.89
2023-07-24T13:53:47.219Z,25.99
2023-07-24T13:56:15.119Z,25.97
2023-07-24T13:58:41.623Z,26.09
2023-07-24T14:01:08.482Z,26.26
2023-07-24T14:03:35.216Z,26.26
2023-07-24T14:06:01.877Z,26.22
2023-07-24T14:08:28.444Z,26.12
2023-07-24T14:10:54.951Z,26.03
2023-07-24T14:13:21.393Z,25.92
2023-07-24T14:15:47.845Z,25.85
2023-07-24T14:18:14.367Z,25.80
2023-07-24T14:20:41.635Z,25.79
2023-07-24T14:23:09.260Z,25.93
2023-07-24T14:25:36.635Z,26.04
2023-07-24T14:28:03.183Z,26.20
2023-07-24T14:30:30.592Z,26.46
2023-07-24T14:32:57.302Z,26.71
2023-07-24T14:35:23.870Z,26.87
2023-07-24T14:37:50.374Z,27.01
2023-07-24T14:40:16.885Z,26.81
2023-07-24T14:42:43.386Z,26.63
2023-07-24T14:45:10.471Z,26.42
2023-07-24T14:47:36.969Z,26.26
2023-07-24T14:50:03.653Z,26.08
2023-07-24T14:52:30.192Z,25.94
2023-07-24T14:54:56.640Z,25.85
2023-07-24T14:57:26.102Z,25.76
2023-07-24T14:59:53.779Z,25.66
2023-07-24T15:02:20.404Z,25.62
2023-07-24T15:04:47.059Z,25.58
2023-07-24T15:07:13.652Z,25.54
2023-07-24T15:09:40.124Z,25.50
2023-07-24T15:12:06.821Z,25.43
2023-07-24T15:14:33.443Z,25.39
2023-07-24T15:17:00.042Z,25.36
2023-07-24T15:19:26.523Z,25.40
2023-07-24T15:21:53.303Z,25.41
2023-07-24T15:24:20.387Z,25.45
2023-07-24T15:26:46.975Z,25.46
2023-07-24T15:29:18.900Z,25.44
2023-07-24T15:31:46.353Z,25.44
2023-07-24T15:34:13.036Z,25.46
2023-07-24T15:36:39.738Z,25.43
2023-07-24T15:39:06.438Z,25.45
2023-07-24T15:41:33.899Z,25.40
2023-07-24T15:44:00.878Z,25.34
2023-07-24T15:46:30.406Z,25.29
2023-07-24T15:48:57.857Z,25.25
2023-07-24T15:51:26.028Z,25.20
2023-07-24T15:53:52.559Z,25.19
2023-07-24T15:56:19.543Z,25.16
2023-07-24T15:58:47.497Z,25.20
2023-07-24T16:01:14.018Z,25.25
2023-07-24T16:03:40.619Z,25.28
2023-07-24T16:06:07.327Z,25.38
2023-07-24T16:08:33.851Z,25.40
2023-07-24T16:11:00.474Z,25.38
2023-07-24T16:13:27.103Z,25.36
2023-07-24T16:15:53.751Z,25.32
2023-07-24T16:18:24.919Z,25.30
2023-07-24T16:20:51.649Z,25.34
2023-07-24T16:23:18.203Z,25.36
2023-07-24T16:25:44.805Z,25.36
2023-07-24T16:28:11.351Z,25.32
2023-07-24T16:30:37.923Z,25.28
2023-07-24T16:33:04.670Z,25.21
2023-07-24T16:35:31.570Z,25.22
2023-07-24T16:37:58.069Z,25.18
2023-07-24T16:40:25.166Z,25.18
2023-07-24T16:42:56.535Z,25.13
2023-07-24T16:47:52.954Z,25.01
2023-07-24T16:50:19.511Z,24.96
2023-07-24T16:52:46.033Z,24.93
2023-07-24T16:55:12.514Z,24.87
2023-07-24T16:57:39.252Z,24.79
2023-07-24T17:00:07.041Z,24.75
2023-07-24T17:02:36.590Z,24.68
2023-07-24T17:05:03.310Z,24.71
2023-07-24T17:07:29.829Z,24.58
2023-07-24T17:09:56.281Z,24.34
2023-07-24T17:12:22.762Z,24.09
2023-07-24T17:14:49.254Z,23.85
2023-07-24T17:17:15.762Z,23.45
2023-07-24T17:19:43.082Z,23.25
2023-07-24T17:22:09.915Z,23.16
2023-07-24T17:24:36.833Z,22.99
2023-07-24T17:27:03.725Z,22.76
2023-07-24T17:29:30.246Z,22.58
2023-07-24T17:31:56.810Z,22.52
2023-07-24T17:34:23.412Z,22.43
2023-07-24T17:36:49.948Z,22.52
2023-07-24T17:43:04.835Z,22.31
2023-07-24T17:45:31.431Z,22.33
2023-07-24T17:47:57.973Z,22.43
2023-07-24T17:50:24.684Z,22.39
2023-07-24T17:52:51.266Z,22.32
2023-07-24T17:55:17.818Z,22.15
2023-07-24T17:57:50.515Z,22.02
2023-07-24T18:00:18.723Z,22.12
2023-07-24T18:02:45.929Z,22.15
2023-07-24T18:05:12.618Z,22.14
2023-07-24T18:07:42.346Z,22.18
2023-07-24T18:10:10.964Z,22.19
2023-07-24T18:12:39.822Z,22.19
2023-07-24T18:15:07.876Z,22.17
2023-07-24T18:17:34.684Z,22.09
2023-07-24T18:20:01.566Z,21.93
2023-07-24T18:22:30.083Z,21.90
2023-07-24T18:24:57.055Z,21.75
2023-07-24T18:27:24.039Z,21.69
2023-07-24T18:29:50.624Z,21.51
2023-07-24T18:32:18.978Z,21.44
2023-07-24T18:34:46.090Z,21.57
2023-07-24T18:37:13.449Z,21.51
2023-07-24T18:39:40.378Z,21.35
2023-07-24T18:42:07.131Z,21.15
2023-07-24T18:44:35.054Z,21.09
2023-07-24T18:47:01.689Z,20.96
2023-07-24T18:49:28.294Z,21.02
2023-07-24T18:51:54.930Z,20.89
2023-07-24T18:54:24.187Z,20.91
2023-07-24T18:56:51.038Z,20.98
2023-07-24T18:59:18.068Z,21.08
2023-07-24T19:01:44.725Z,21.05
2023-07-24T19:04:11.415Z,21.02
2023-07-24T19:06:38.765Z,21.00
2023-07-24T19:09:05.501Z,20.94
2023-07-24T19:11:33.589Z,20.81
2023-07-24T19:14:00.235Z,20.83
2023-07-24T19:16:27.026Z,20.94
2023-07-24T19:18:53.855Z,20.86
2023-07-24T19:21:20.453Z,20.84
2023-07-24T19:23:47.036Z,20.71
2023-07-24T19:26:14.686Z,20.68
2023-07-24T19:28:41.272Z,20.66
2023-07-24T19:31:08.135Z,20.54
2023-07-24T19:33:34.741Z,20.51
2023-07-24T19:36:02.327Z,20.32
2023-07-24T19:38:29.293Z,20.19
2023-07-24T19:41:00.227Z,20.15
2023-07-24T19:43:27.282Z,20.18
2023-07-24T19:45:54.515Z,20.18
2023-07-24T19:48:22.226Z,20.26
2023-07-24T19:50:50.925Z,20.18
2023-07-24T19:53:19.895Z,20.13
2023-07-24T19:55:48.928Z,20.02
2023-07-24T19:58:26.976Z,19.92
2023-07-24T20:00:57.799Z,19.89
2023-07-24T20:03:24.507Z,19.92
2023-07-24T20:05:56.920Z,19.89
2023-07-24T20:08:24.842Z,19.83
2023-07-24T20:10:52.389Z,19.88
2023-07-24T20:13:19.735Z,19.90
2023-07-24T20:15:47.140Z,19.87
2023-07-24T20:18:14.742Z,19.87
2023-07-24T20:20:51.355Z,19.91
2023-07-24T20:23:22.519Z,19.91
2023-07-24T20:25:53.770Z,19.78
2023-07-24T20:28:25.025Z,19.69
2023-07-24T20:30:51.855Z,19.71
2023-07-24T20:33:18.546Z,19.65
2023-07-24T20:35:46.410Z,19.59
2023-07-24T20:38:28.817Z,19.54
2023-07-24T20:40:56.204Z,19.51
2023-07-24T20:43:22.882Z,19.47
2023-07-24T20:45:51.883Z,19.42
2023-07-24T20:48:18.772Z,19.36
2023-07-24T20:50:45.624Z,19.36
2023-07-24T20:53:12.276Z,19.33
2023-07-24T20:55:39.149Z,19.34
2023-07-24T20:58:05.777Z,19.35
2023-07-24T21:00:32.428Z,19.36
2023-07-24T21:02:59.626Z,19.42
2023-07-24T21:05:26.312Z,19.35
2023-07-24T21:07:55.068Z,19.36
2023-07-24T21:10:21.688Z,19.32
2023-07-24T21:12:48.365Z,19.32
2023-07-24T21:15:14.941Z,19.29
2023-07-24T21:17:41.577Z,19.36
2023-07-24T21:20:08.710Z,19.40
2023-07-24T21:22:35.227Z,19.44
2023-07-24T21:25:02.088Z,19.46
2023-07-24T21:27:28.759Z,19.50
2023-07-24T21:29:56.620Z,19.50
2023-07-24T21:32:23.464Z,19.50
2023-07-24T21:34:50.442Z,19.54
2023-07-24T21:37:17.104Z,19.53
2023-07-24T21:39:43.954Z,19.55
2023-07-24T21:42:10.839Z,19.60
2023-07-24T21:44:37.510Z,19.60
2023-07-24T21:47:04.660Z,19.55
2023-07-24T21:49:32.536Z,19.60
2023-07-24T21:52:01.185Z,19.59
2023-07-24T21:54:28.268Z,19.63
2023-07-24T21:56:55.089Z,19.70
2023-07-24T21:59:21.703Z,19.66
2023-07-24T22:01:48.487Z,19.57
2023-07-24T22:04:15.374Z,19.50
2023-07-24T22:06:42.144Z,19.52
2023-07-24T22:09:09.012Z,19.52
2023-07-24T22:11:36.963Z,19.52
2023-07-24T22:14:04.074Z,19.46
2023-07-24T22:16:30.740Z,19.55
2023-07-24T22:18:57.384Z,19.62
2023-07-24T22:21:24.130Z,19.59
2023-07-24T22:23:51.177Z,19.53
2023-07-24T22:26:18.018Z,19.60
2023-07-24T22:28:44.613Z,19.60
2023-07-24T22:31:12.669Z,19.64
2023-07-24T22:33:39.545Z,19.58
2023-07-24T22:36:06.269Z,19.55
2023-07-24T22:38:32.923Z,19.58
2023-07-24T22:40:59.700Z,19.56
2023-07-24T22:43:26.283Z,19.52
2023-07-24T22:45:53.200Z,19.48
2023-07-24T22:48:19.783Z,19.39
2023-07-24T22:50:47.207Z,19.42
2023-07-24T22:53:13.821Z,19.42
2023-07-24T22:55:40.386Z,19.37
2023-07-24T22:58:08.687Z,19.38
2023-07-24T23:00:35.612Z,19.32
2023-07-24T23:03:02.436Z,19.33
2023-07-24T23:05:31.343Z,19.27
2023-07-24T23:07:57.979Z,19.30
2023-07-24T23:10:24.663Z,19.25
2023-07-24T23:12:51.611Z,19.22
2023-07-24T23:15:18.434Z,19.15
2023-07-24T23:17:45.061Z,19.14
2023-07-24T23:20:12.455Z,19.19
2023-07-24T23:22:39.430Z,19.21
2023-07-24T23:25:09.606Z,19.17
2023-07-24T23:27:36.179Z,19.17
2023-07-24T23:30:02.823Z,19.17
2023-07-24T23:32:29.652Z,19.06
2023-07-24T23:34:56.321Z,19.08
2023-07-24T23:37:22.936Z,19.09
2023-07-24T23:39:49.610Z,19.08
2023-07-24T23:42:16.266Z,19.14
2023-07-24T23:44:43.296Z,19.21
2023-07-24T23:47:10.135Z,19.26
2023-07-24T23:49:36.663Z,19.28
2023-07-24T23:52:03.789Z,19.19
2023-07-24T23:54:30.874Z,19.31
2023-07-24T23:56:57.552Z,19.43
2023-07-24T23:59:24.117Z,19.50
